sensor_id;sensor_type;location;lat;lon;timestamp;pressure;altitude;pressure_sealevel;temperature;humidity
39197;BME280;42889;51.112;13.772;2023-02-03T00:02:06;99820.63;;;2.22;100.00
39197;BME280;42889;51.112;13.772;2023-02-03T00:04:32;99826.69;;;2.24;100.00
39197;BME280;42889;51.112;13.772;2023-02-03T00:06:59;99818.56;;;2.27;100.00
39197;BME280;42889;51.112;13.772;2023-02-03T00:09:26;99815.91;;;2.27;100.00
39197;BME280;42889;51.112;13.772;2023-02-03T00:11:53;99815.03;;;2.26;100.00
39197;BME280;42889;51.112;13.772;2023-02-03T00:14:20;99813.66;;;2.19;100.00
39197;BME280;42889;51.112;13.772;2023-02-03T00:16:46;99814.25;;;2.24;100.00
39197;BME280;42889;51.112;13.772;2023-02-03T00:19:13;99809.91;;;2.23;100.00
39197;BME280;42889;51.112;13.772;2023-02-03T00:21:42;99806.81;;;2.31;100.00
39197;BME280;42889;51.112;13.772;2023-02-03T00:24:10;99804.22;;;2.29;100.00
39197;BME280;42889;51.112;13.772;2023-02-03T00:26:41;99808.56;;;2.16;100.00
39197;BME280;42889;51.112;13.772;2023-02-03T00:29:08;99806.13;;;2.27;100.00
39197;BME280;42889;51.112;13.772;2023-02-03T00:31:35;99801.44;;;2.17;100.00
39197;BME280;42889;51.112;13.772;2023-02-03T00:34:02;99804.44;;;2.26;100.00
39197;BME280;42889;51.112;13.772;2023-02-03T00:36:28;99796.13;;;2.17;100.00
39197;BME280;42889;51.112;13.772;2023-02-03T00:38:55;99790.63;;;2.20;100.00
39197;BME280;42889;51.112;13.772;2023-02-03T00:41:22;99796.22;;;2.15;100.00
39197;BME280;42889;51.112;13.772;2023-02-03T00:43:53;99788.66;;;2.23;100.00
39197;BME280;42889;51.112;13.772;2023-02-03T00:46:20;99776.69;;;2.16;100.00
39197;BME280;42889;51.112;13.772;2023-02-03T00:48:47;99769.13;;;2.24;100.00
39197;BME280;42889;51.112;13.772;2023-02-03T00:51:13;99761.72;;;2.15;100.00
39197;BME280;42889;51.112;13.772;2023-02-03T00:53:40;99759.13;;;2.14;100.00
39197;BME280;42889;51.112;13.772;2023-02-03T00:56:06;99756.31;;;2.17;100.00
39197;BME280;42889;51.112;13.772;2023-02-03T00:58:41;99748.50;;;2.14;100.00
39197;BME280;42889;51.112;13.772;2023-02-03T01:01:07;99750.69;;;2.07;100.00
39197;BME280;42889;51.112;13.772;2023-02-03T01:03:34;99741.28;;;2.01;100.00
39197;BME280;42889;51.112;13.772;2023-02-03T01:06:27;99736.75;;;2.03;100.00
39197;BME280;42889;51.112;13.772;2023-02-03T01:08:54;99730.16;;;1.95;100.00
39197;BME280;42889;51.112;13.772;2023-02-03T01:11:23;99725.03;;;1.92;100.00
39197;BME280;42889;51.112;13.772;2023-02-03T01:13:52;99716.47;;;1.87;100.00
39197;BME280;42889;51.112;13.772;2023-02-03T01:16:21;99705.69;;;1.90;100.00
39197;BME280;42889;51.112;13.772;2023-02-03T01:18:49;99702.09;;;1.91;100.00
39197;BME280;42889;51.112;13.772;2023-02-03T01:21:19;99695.53;;;1.82;100.00
39197;BME280;42889;51.112;13.772;2023-02-03T01:23:46;99695.72;;;1.79;100.00
39197;BME280;42889;51.112;13.772;2023-02-03T01:26:15;99690.22;;;1.82;100.00
39197;BME280;42889;51.112;13.772;2023-02-03T01:28:42;99685.78;;;1.82;100.00
39197;BME280;42889;51.112;13.772;2023-02-03T01:31:16;99676.19;;;1.80;100.00
39197;BME280;42889;51.112;13.772;2023-02-03T01:33:44;99667.09;;;1.84;100.00
39197;BME280;42889;51.112;13.772;2023-02-03T01:36:15;99656.38;;;1.85;100.00
39197;BME280;42889;51.112;13.772;2023-02-03T01:38:43;99660.19;;;1.81;100.00
39197;BME280;42889;51.112;13.772;2023-02-03T01:41:16;99644.34;;;1.80;100.00
39197;BME280;42889;51.112;13.772;2023-02-03T01:43:48;99647.47;;;1.72;100.00
39197;BME280;42889;51.112;13.772;2023-02-03T01:46:37;99648.56;;;1.68;100.00
39197;BME280;42889;51.112;13.772;2023-02-03T01:49:12;99644.91;;;1.71;100.00
39197;BME280;42889;51.112;13.772;2023-02-03T01:51:41;99651.22;;;1.68;100.00
39197;BME280;42889;51.112;13.772;2023-02-03T01:54:11;99644.75;;;1.58;100.00
39197;BME280;42889;51.112;13.772;2023-02-03T01:56:41;99642.19;;;1.56;100.00
39197;BME280;42889;51.112;13.772;2023-02-03T01:59:10;99641.16;;;1.59;100.00
39197;BME280;42889;51.112;13.772;2023-02-03T02:01:37;99629.78;;;1.57;100.00
39197;BME280;42889;51.112;13.772;2023-02-03T02:04:05;99625.69;;;1.51;100.00
39197;BME280;42889;51.112;13.772;2023-02-03T02:06:32;99617.84;;;1.50;100.00
39197;BME280;42889;51.112;13.772;2023-02-03T02:08:59;99614.06;;;1.54;100.00
39197;BME280;42889;51.112;13.772;2023-02-03T02:11:28;99606.28;;;1.51;100.00
39197;BME280;42889;51.112;13.772;2023-02-03T02:13:58;99601.34;;;1.45;100.00
39197;BME280;42889;51.112;13.772;2023-02-03T02:16:33;99589.78;;;1.46;100.00
39197;BME280;42889;51.112;13.772;2023-02-03T02:38:26;99549.66;;;1.66;100.00
39197;BME280;42889;51.112;13.772;2023-02-03T02:43:41;99538.56;;;1.74;100.00
39197;BME280;42889;51.112;13.772;2023-02-03T02:46:16;99531.00;;;1.68;100.00
39197;BME280;42889;51.112;13.772;2023-02-03T02:49:14;99517.06;;;1.64;100.00
39197;BME280;42889;51.112;13.772;2023-02-03T02:51:43;99512.59;;;1.65;100.00
39197;BME280;42889;51.112;13.772;2023-02-03T02:54:17;99511.47;;;1.69;100.00
39197;BME280;42889;51.112;13.772;2023-02-03T02:56:48;99498.03;;;1.72;100.00
39197;BME280;42889;51.112;13.772;2023-02-03T02:59:16;99485.63;;;1.72;100.00
39197;BME280;42889;51.112;13.772;2023-02-03T03:01:44;99482.00;;;1.73;100.00
39197;BME280;42889;51.112;13.772;2023-02-03T03:04:14;99466.84;;;1.75;100.00
39197;BME280;42889;51.112;13.772;2023-02-03T03:06:47;99469.31;;;1.78;100.00
39197;BME280;42889;51.112;13.772;2023-02-03T03:09:41;99460.41;;;1.79;100.00
39197;BME280;42889;51.112;13.772;2023-02-03T03:12:17;99458.69;;;1.78;100.00
39197;BME280;42889;51.112;13.772;2023-02-03T03:14:47;99445.06;;;1.84;100.00
39197;BME280;42889;51.112;13.772;2023-02-03T03:17:23;99448.38;;;1.88;100.00
39197;BME280;42889;51.112;13.772;2023-02-03T03:19:54;99450.91;;;1.90;100.00
39197;BME280;42889;51.112;13.772;2023-02-03T03:22:26;99435.19;;;1.87;100.00
39197;BME280;42889;51.112;13.772;2023-02-03T03:25:02;99438.72;;;1.87;100.00
39197;BME280;42889;51.112;13.772;2023-02-03T03:27:38;99440.75;;;1.96;100.00
39197;BME280;42889;51.112;13.772;2023-02-03T03:30:10;99446.06;;;1.96;100.00
39197;BME280;42889;51.112;13.772;2023-02-03T03:32:39;99439.22;;;2.06;100.00
39197;BME280;42889;51.112;13.772;2023-02-03T03:35:06;99437.25;;;2.10;100.00
39197;BME280;42889;51.112;13.772;2023-02-03T03:37:42;99434.03;;;2.05;100.00
39197;BME280;42889;51.112;13.772;2023-02-03T03:45:23;99440.69;;;2.25;100.00
39197;BME280;42889;51.112;13.772;2023-02-03T03:48:15;99438.59;;;2.30;100.00
39197;BME280;42889;51.112;13.772;2023-02-03T03:50:44;99435.03;;;2.31;100.00
39197;BME280;42889;51.112;13.772;2023-02-03T03:53:14;99429.09;;;2.40;100.00
39197;BME280;42889;51.112;13.772;2023-02-03T03:55:46;99425.06;;;2.47;100.00
39197;BME280;42889;51.112;13.772;2023-02-03T03:58:23;99422.88;;;2.54;100.00
39197;BME280;42889;51.112;13.772;2023-02-03T04:00:53;99411.00;;;2.59;100.00
39197;BME280;42889;51.112;13.772;2023-02-03T04:03:24;99407.38;;;2.60;100.00
39197;BME280;42889;51.112;13.772;2023-02-03T04:05:53;99387.41;;;2.68;100.00
39197;BME280;42889;51.112;13.772;2023-02-03T04:08:20;99373.22;;;2.81;100.00
39197;BME280;42889;51.112;13.772;2023-02-03T04:10:46;99363.19;;;2.85;100.00
39197;BME280;42889;51.112;13.772;2023-02-03T04:13:13;99348.22;;;2.97;100.00
39197;BME280;42889;51.112;13.772;2023-02-03T04:15:41;99351.22;;;3.05;100.00
39197;BME280;42889;51.112;13.772;2023-02-03T04:18:10;99343.22;;;3.17;100.00
39197;BME280;42889;51.112;13.772;2023-02-03T04:20:37;99352.06;;;3.31;100.00
39197;BME280;42889;51.112;13.772;2023-02-03T04:23:04;99343.53;;;3.38;100.00
39197;BME280;42889;51.112;13.772;2023-02-03T04:25:31;99338.41;;;3.48;100.00
39197;BME280;42889;51.112;13.772;2023-02-03T04:27:57;99335.84;;;3.59;100.00
39197;BME280;42889;51.112;13.772;2023-02-03T04:30:24;99341.09;;;3.72;100.00
39197;BME280;42889;51.112;13.772;2023-02-03T04:32:52;99343.56;;;3.75;100.00
39197;BME280;42889;51.112;13.772;2023-02-03T04:35:19;99336.25;;;3.90;100.00
39197;BME280;42889;51.112;13.772;2023-02-03T04:37:46;99330.59;;;3.94;100.00
39197;BME280;42889;51.112;13.772;2023-02-03T04:40:12;99338.25;;;3.99;100.00
39197;BME280;42889;51.112;13.772;2023-02-03T04:42:39;99340.13;;;4.10;100.00
39197;BME280;42889;51.112;13.772;2023-02-03T04:45:08;99343.59;;;4.23;100.00
39197;BME280;42889;51.112;13.772;2023-02-03T04:47:36;99330.03;;;4.26;100.00
39197;BME280;42889;51.112;13.772;2023-02-03T04:50:03;99322.69;;;4.30;100.00
39197;BME280;42889;51.112;13.772;2023-02-03T04:52:30;99332.13;;;4.34;100.00
39197;BME280;42889;51.112;13.772;2023-02-03T04:54:57;99327.81;;;4.44;100.00
39197;BME280;42889;51.112;13.772;2023-02-03T04:57:24;99327.09;;;4.42;100.00
39197;BME280;42889;51.112;13.772;2023-02-03T04:59:50;99338.47;;;4.44;100.00
39197;BME280;42889;51.112;13.772;2023-02-03T05:02:17;99334.84;;;4.45;100.00
39197;BME280;42889;51.112;13.772;2023-02-03T05:04:43;99331.72;;;4.51;100.00
39197;BME280;42889;51.112;13.772;2023-02-03T05:07:10;99315.63;;;4.53;100.00
39197;BME280;42889;51.112;13.772;2023-02-03T05:09:37;99320.09;;;4.52;100.00
39197;BME280;42889;51.112;13.772;2023-02-03T05:12:04;99315.38;;;4.56;100.00
39197;BME280;42889;51.112;13.772;2023-02-03T05:14:30;99313.97;;;4.63;100.00
39197;BME280;42889;51.112;13.772;2023-02-03T05:16:57;99299.16;;;4.59;100.00
39197;BME280;42889;51.112;13.772;2023-02-03T05:19:24;99313.47;;;4.58;100.00
39197;BME280;42889;51.112;13.772;2023-02-03T05:21:50;99304.47;;;4.59;100.00
39197;BME280;42889;51.112;13.772;2023-02-03T05:24:17;99296.03;;;4.65;100.00
39197;BME280;42889;51.112;13.772;2023-02-03T05:26:43;99286.31;;;4.64;100.00
39197;BME280;42889;51.112;13.772;2023-02-03T05:29:10;99291.66;;;4.64;100.00
39197;BME280;42889;51.112;13.772;2023-02-03T05:31:37;99282.69;;;4.65;100.00
39197;BME280;42889;51.112;13.772;2023-02-03T05:34:04;99280.88;;;4.65;100.00
39197;BME280;42889;51.112;13.772;2023-02-03T05:36:30;99263.91;;;4.66;100.00
39197;BME280;42889;51.112;13.772;2023-02-03T05:38:57;99282.34;;;4.69;100.00
39197;BME280;42889;51.112;13.772;2023-02-03T05:41:24;99280.66;;;4.68;100.00
39197;BME280;42889;51.112;13.772;2023-02-03T05:44:09;99281.38;;;4.70;100.00
39197;BME280;42889;51.112;13.772;2023-02-03T05:46:36;99278.47;;;4.73;100.00
39197;BME280;42889;51.112;13.772;2023-02-03T05:49:02;99269.50;;;4.74;100.00
39197;BME280;42889;51.112;13.772;2023-02-03T05:51:29;99278.34;;;4.75;100.00
39197;BME280;42889;51.112;13.772;2023-02-03T05:53:55;99291.81;;;4.73;100.00
39197;BME280;42889;51.112;13.772;2023-02-03T05:56:22;99298.56;;;4.78;100.00
39197;BME280;42889;51.112;13.772;2023-02-03T05:58:49;99285.75;;;4.83;100.00
39197;BME280;42889;51.112;13.772;2023-02-03T06:01:18;99283.22;;;4.81;100.00
39197;BME280;42889;51.112;13.772;2023-02-03T06:03:46;99285.16;;;4.79;100.00
39197;BME280;42889;51.112;13.772;2023-02-03T06:06:14;99282.34;;;4.81;100.00
39197;BME280;42889;51.112;13.772;2023-02-03T06:08:41;99286.72;;;4.82;100.00
39197;BME280;42889;51.112;13.772;2023-02-03T06:11:08;99297.16;;;4.85;100.00
39197;BME280;42889;51.112;13.772;2023-02-03T06:13:35;99289.03;;;4.86;100.00
39197;BME280;42889;51.112;13.772;2023-02-03T06:16:02;99277.53;;;4.86;100.00
39197;BME280;42889;51.112;13.772;2023-02-03T06:18:29;99265.03;;;4.86;100.00
39197;BME280;42889;51.112;13.772;2023-02-03T06:20:56;99270.25;;;4.88;100.00
39197;BME280;42889;51.112;13.772;2023-02-03T06:23:22;99260.81;;;4.95;100.00
39197;BME280;42889;51.112;13.772;2023-02-03T06:25:50;99245.75;;;4.94;100.00
39197;BME280;42889;51.112;13.772;2023-02-03T06:28:17;99242.16;;;4.95;100.00
39197;BME280;42889;51.112;13.772;2023-02-03T06:30:44;99236.44;;;4.99;100.00
39197;BME280;42889;51.112;13.772;2023-02-03T06:33:14;99263.00;;;5.01;100.00
39197;BME280;42889;51.112;13.772;2023-02-03T06:35:41;99237.41;;;4.98;100.00
39197;BME280;42889;51.112;13.772;2023-02-03T06:38:07;99246.72;;;5.04;100.00
39197;BME280;42889;51.112;13.772;2023-02-03T06:40:34;99244.81;;;5.06;100.00
39197;BME280;42889;51.112;13.772;2023-02-03T06:43:01;99239.00;;;5.12;100.00
39197;BME280;42889;51.112;13.772;2023-02-03T06:45:27;99238.00;;;5.13;100.00
39197;BME280;42889;51.112;13.772;2023-02-03T06:47:54;99221.03;;;5.14;100.00
39197;BME280;42889;51.112;13.772;2023-02-03T06:50:21;99218.00;;;5.19;100.00
39197;BME280;42889;51.112;13.772;2023-02-03T06:52:48;99203.69;;;5.20;100.00
39197;BME280;42889;51.112;13.772;2023-02-03T06:55:15;99201.03;;;5.20;100.00
39197;BME280;42889;51.112;13.772;2023-02-03T06:57:43;99200.03;;;5.21;100.00
39197;BME280;42889;51.112;13.772;2023-02-03T07:00:11;99190.97;;;5.23;100.00
39197;BME280;42889;51.112;13.772;2023-02-03T07:02:41;99200.88;;;5.21;100.00
39197;BME280;42889;51.112;13.772;2023-02-03T07:05:09;99190.22;;;5.21;100.00
39197;BME280;42889;51.112;13.772;2023-02-03T07:07:36;99190.34;;;5.20;100.00
39197;BME280;42889;51.112;13.772;2023-02-03T07:10:05;99181.50;;;5.19;100.00
39197;BME280;42889;51.112;13.772;2023-02-03T07:12:32;99181.38;;;5.21;100.00
39197;BME280;42889;51.112;13.772;2023-02-03T07:14:59;99170.31;;;5.25;100.00
39197;BME280;42889;51.112;13.772;2023-02-03T07:17:26;99157.84;;;5.26;100.00
39197;BME280;42889;51.112;13.772;2023-02-03T07:19:52;99162.47;;;5.24;100.00
39197;BME280;42889;51.112;13.772;2023-02-03T07:22:19;99167.66;;;5.25;100.00
39197;BME280;42889;51.112;13.772;2023-02-03T07:24:46;99166.69;;;5.26;100.00
39197;BME280;42889;51.112;13.772;2023-02-03T07:27:12;99164.75;;;5.28;100.00
39197;BME280;42889;51.112;13.772;2023-02-03T07:29:39;99162.09;;;5.28;100.00
39197;BME280;42889;51.112;13.772;2023-02-03T07:32:06;99173.94;;;5.36;100.00
39197;BME280;42889;51.112;13.772;2023-02-03T07:34:33;99173.94;;;5.36;100.00
39197;BME280;42889;51.112;13.772;2023-02-03T07:36:59;99169.78;;;5.43;100.00
39197;BME280;42889;51.112;13.772;2023-02-03T07:39:26;99168.81;;;5.44;100.00
39197;BME280;42889;51.112;13.772;2023-02-03T07:41:53;99171.88;;;5.39;100.00
39197;BME280;42889;51.112;13.772;2023-02-03T07:44:21;99154.16;;;5.38;100.00
39197;BME280;42889;51.112;13.772;2023-02-03T07:46:48;99149.09;;;5.35;100.00
39197;BME280;42889;51.112;13.772;2023-02-03T07:49:14;99154.41;;;5.35;100.00
39197;BME280;42889;51.112;13.772;2023-02-03T07:51:41;99143.88;;;5.34;100.00
39197;BME280;42889;51.112;13.772;2023-02-03T07:54:08;99146.56;;;5.34;100.00
39197;BME280;42889;51.112;13.772;2023-02-03T07:56:34;99134.28;;;5.31;100.00
39197;BME280;42889;51.112;13.772;2023-02-03T07:59:02;99128.47;;;5.26;100.00
39197;BME280;42889;51.112;13.772;2023-02-03T08:01:28;99138.44;;;5.24;100.00
39197;BME280;42889;51.112;13.772;2023-02-03T08:03:56;99133.34;;;5.21;100.00
39197;BME280;42889;51.112;13.772;2023-02-03T08:06:24;99130.94;;;5.18;100.00
39197;BME280;42889;51.112;13.772;2023-02-03T08:08:50;99128.38;;;5.16;100.00
39197;BME280;42889;51.112;13.772;2023-02-03T08:11:19;99125.84;;;5.15;100.00
39197;BME280;42889;51.112;13.772;2023-02-03T08:13:46;99117.38;;;5.10;100.00
39197;BME280;42889;51.112;13.772;2023-02-03T08:16:12;99123.44;;;5.12;100.00
39197;BME280;42889;51.112;13.772;2023-02-03T08:18:39;99119.06;;;5.11;100.00
39197;BME280;42889;51.112;13.772;2023-02-03T08:21:06;99121.84;;;5.09;100.00
39197;BME280;42889;51.112;13.772;2023-02-03T08:23:32;99121.72;;;5.11;100.00
39197;BME280;42889;51.112;13.772;2023-02-03T08:25:59;99126.13;;;5.12;100.00
39197;BME280;42889;51.112;13.772;2023-02-03T08:28:26;99112.66;;;5.13;100.00
39197;BME280;42889;51.112;13.772;2023-02-03T08:30:52;99105.00;;;5.09;100.00
39197;BME280;42889;51.112;13.772;2023-02-03T08:33:19;99120.31;;;5.07;100.00
39197;BME280;42889;51.112;13.772;2023-02-03T08:35:48;99114.22;;;5.05;100.00
39197;BME280;42889;51.112;13.772;2023-02-03T08:38:15;99109.72;;;5.05;100.00
39197;BME280;42889;51.112;13.772;2023-02-03T08:40:42;99111.47;;;5.06;100.00
39197;BME280;42889;51.112;13.772;2023-02-03T08:43:08;99110.47;;;5.07;100.00
39197;BME280;42889;51.112;13.772;2023-02-03T08:45:38;99111.31;;;5.08;100.00
39197;BME280;42889;51.112;13.772;2023-02-03T08:48:05;99096.41;;;5.05;100.00
39197;BME280;42889;51.112;13.772;2023-02-03T08:50:32;99092.78;;;5.06;100.00
39197;BME280;42889;51.112;13.772;2023-02-03T08:52:59;99094.72;;;5.04;100.00
39197;BME280;42889;51.112;13.772;2023-02-03T08:55:25;99086.72;;;5.04;100.00
39197;BME280;42889;51.112;13.772;2023-02-03T08:57:52;99094.72;;;5.04;100.00
39197;BME280;42889;51.112;13.772;2023-02-03T09:00:19;99093.03;;;5.03;100.00
39197;BME280;42889;51.112;13.772;2023-02-03T09:02:46;99092.88;;;5.05;100.00
39197;BME280;42889;51.112;13.772;2023-02-03T09:05:13;99102.84;;;5.02;100.00
39197;BME280;42889;51.112;13.772;2023-02-03T09:07:41;99103.81;;;5.01;100.00
39197;BME280;42889;51.112;13.772;2023-02-03T09:10:08;99087.69;;;5.03;100.00
39197;BME280;42889;51.112;13.772;2023-02-03T09:12:35;99087.69;;;5.03;100.00
39197;BME280;42889;51.112;13.772;2023-02-03T09:15:01;99074.34;;;5.03;100.00
39197;BME280;42889;51.112;13.772;2023-02-03T09:17:28;99069.03;;;5.03;100.00
39197;BME280;42889;51.112;13.772;2023-02-03T09:19:55;99059.19;;;5.03;100.00
39197;BME280;42889;51.112;13.772;2023-02-03T09:22:21;99064.66;;;5.02;100.00
39197;BME280;42889;51.112;13.772;2023-02-03T09:24:48;99053.16;;;5.01;100.00
39197;BME280;42889;51.112;13.772;2023-02-03T09:27:16;99046.97;;;5.01;100.00
39197;BME280;42889;51.112;13.772;2023-02-03T09:29:43;99038.84;;;5.02;100.00
39197;BME280;42889;51.112;13.772;2023-02-03T09:32:10;99038.84;;;5.02;100.00
39197;BME280;42889;51.112;13.772;2023-02-03T09:34:39;99040.38;;;5.05;100.00
39197;BME280;42889;51.112;13.772;2023-02-03T09:37:07;99037.84;;;5.03;100.00
39197;BME280;42889;51.112;13.772;2023-02-03T09:39:34;99022.59;;;5.06;100.00
39197;BME280;42889;51.112;13.772;2023-02-03T09:45:39;98994.81;;;5.08;100.00
39197;BME280;42889;51.112;13.772;2023-02-03T09:47:46;98978.66;;;5.10;100.00
39197;BME280;42889;51.112;13.772;2023-02-03T09:50:23;98972.50;;;5.09;100.00
39197;BME280;42889;51.112;13.772;2023-02-03T09:52:51;98965.47;;;5.08;100.00
39197;BME280;42889;51.112;13.772;2023-02-03T09:55:40;98967.28;;;5.08;100.00
39197;BME280;42889;51.112;13.772;2023-02-03T09:58:18;98960.13;;;5.08;100.00
39197;BME280;42889;51.112;13.772;2023-02-03T10:01:01;98959.16;;;5.09;100.00
39197;BME280;42889;51.112;13.772;2023-02-03T10:03:46;98955.50;;;5.10;100.00
39197;BME280;42889;51.112;13.772;2023-02-03T10:09:11;98953.44;;;5.14;100.00
39197;BME280;42889;51.112;13.772;2023-02-03T10:22:44;98911.53;;;5.25;100.00
39197;BME280;42889;51.112;13.772;2023-02-03T10:27:41;98909.72;;;5.26;100.00
39197;BME280;42889;51.112;13.772;2023-02-03T10:30:19;98902.31;;;5.29;100.00
39197;BME280;42889;51.112;13.772;2023-02-03T10:33:09;98899.50;;;5.31;100.00
39197;BME280;42889;51.112;13.772;2023-02-03T10:35:54;98889.66;;;5.32;100.00
39197;BME280;42889;51.112;13.772;2023-02-03T10:38:38;98892.22;;;5.33;100.00
39197;BME280;42889;51.112;13.772;2023-02-03T10:41:07;98890.13;;;5.37;100.00
39197;BME280;42889;51.112;13.772;2023-02-03T10:43:34;98880.03;;;5.40;100.00
39197;BME280;42889;51.112;13.772;2023-02-03T10:46:15;98878.06;;;5.42;100.00
39197;BME280;42889;51.112;13.772;2023-02-03T10:48:42;98879.91;;;5.42;100.00
39197;BME280;42889;51.112;13.772;2023-02-03T10:53:48;98863.75;;;5.43;100.00
39197;BME280;42889;51.112;13.772;2023-02-03T10:56:24;98856.47;;;5.45;100.00
39197;BME280;42889;51.112;13.772;2023-02-03T10:58:54;98852.81;;;5.46;100.00
39197;BME280;42889;51.112;13.772;2023-02-03T11:01:24;98852.13;;;5.54;100.00
39197;BME280;42889;51.112;13.772;2023-02-03T11:03:58;98851.88;;;5.57;100.00
39197;BME280;42889;51.112;13.772;2023-02-03T11:06:26;98851.88;;;5.57;100.00
39197;BME280;42889;51.112;13.772;2023-02-03T11:08:53;98850.63;;;5.61;100.00
39197;BME280;42889;51.112;13.772;2023-02-03T11:16:32;98830.13;;;5.71;100.00
39197;BME280;42889;51.112;13.772;2023-02-03T11:19:00;98831.13;;;5.70;100.00
39197;BME280;42889;51.112;13.772;2023-02-03T11:21:31;98826.50;;;5.72;100.00
39197;BME280;42889;51.112;13.772;2023-02-03T11:24:18;98831.84;;;5.72;100.00
39197;BME280;42889;51.112;13.772;2023-02-03T11:27:05;98834.53;;;5.72;100.00
39197;BME280;42889;51.112;13.772;2023-02-03T11:29:35;98811.59;;;5.70;100.00
39197;BME280;42889;51.112;13.772;2023-02-03T11:32:27;98803.31;;;5.73;100.00
39197;BME280;42889;51.112;13.772;2023-02-03T11:35:17;98826.22;;;5.75;100.00
39197;BME280;42889;51.112;13.772;2023-02-03T11:37:53;98849.56;;;5.73;100.00
39197;BME280;42889;51.112;13.772;2023-02-03T11:50:15;98790.16;;;5.91;100.00
39197;BME280;42889;51.112;13.772;2023-02-03T11:55:37;98775.94;;;5.90;100.00
39197;BME280;42889;51.112;13.772;2023-02-03T12:01:31;98731.28;;;5.92;100.00
39197;BME280;42889;51.112;13.772;2023-02-03T12:12:21;98708.81;;;6.04;100.00
39197;BME280;42889;51.112;13.772;2023-02-03T12:17:48;98719.19;;;6.07;100.00
39197;BME280;42889;51.112;13.772;2023-02-03T12:33:56;98709.63;;;6.24;100.00
39197;BME280;42889;51.112;13.772;2023-02-03T12:36:31;98719.06;;;6.28;100.00
39197;BME280;42889;51.112;13.772;2023-02-03T12:39:05;98726.78;;;6.31;100.00
39197;BME280;42889;51.112;13.772;2023-02-03T12:41:38;98713.03;;;6.26;100.00
39197;BME280;42889;51.112;13.772;2023-02-03T12:44:32;98708.06;;;6.31;100.00
39197;BME280;42889;51.112;13.772;2023-02-03T12:47:06;98705.28;;;6.33;100.00
39197;BME280;42889;51.112;13.772;2023-02-03T12:49:57;98702.31;;;6.36;100.00
39197;BME280;42889;51.112;13.772;2023-02-03T12:52:39;98700.34;;;6.38;100.00
39197;BME280;42889;51.112;13.772;2023-02-03T12:58:27;98702.56;;;6.43;100.00
39197;BME280;42889;51.112;13.772;2023-02-03T13:01:08;98727.59;;;6.42;100.00
39197;BME280;42889;51.112;13.772;2023-02-03T13:03:44;98733.38;;;6.47;100.00
39197;BME280;42889;51.112;13.772;2023-02-03T13:06:35;98769.69;;;6.40;100.00
39197;BME280;42889;51.112;13.772;2023-02-03T13:12:02;98774.88;;;6.31;100.00
39197;BME280;42889;51.112;13.772;2023-02-03T13:14:38;98810.75;;;6.19;100.00
39197;BME280;42889;51.112;13.772;2023-02-03T13:17:14;98776.97;;;6.08;100.00
39197;BME280;42889;51.112;13.772;2023-02-03T13:19:47;98801.88;;;5.99;100.00
39197;BME280;42889;51.112;13.772;2023-02-03T13:22:15;98793.69;;;5.91;100.00
39197;BME280;42889;51.112;13.772;2023-02-03T13:24:47;98801.09;;;5.88;100.00
39197;BME280;42889;51.112;13.772;2023-02-03T13:38:33;98808.63;;;5.63;100.00
39197;BME280;42889;51.112;13.772;2023-02-03T13:41:22;98808.47;;;5.55;100.00
39197;BME280;42889;51.112;13.772;2023-02-03T13:43:55;98780.22;;;5.52;100.00
39197;BME280;42889;51.112;13.772;2023-02-03T13:46:31;98807.59;;;5.54;100.00
39197;BME280;42889;51.112;13.772;2023-02-03T13:49:01;98819.69;;;5.59;100.00
39197;BME280;42889;51.112;13.772;2023-02-03T13:51:41;98818.47;;;5.63;100.00
39197;BME280;42889;51.112;13.772;2023-02-03T13:54:32;98815.50;;;5.66;100.00
39197;BME280;42889;51.112;13.772;2023-02-03T13:57:17;98818.75;;;5.69;100.00
39197;BME280;42889;51.112;13.772;2023-02-03T13:59:45;98826.38;;;5.74;100.00
39197;BME280;42889;51.112;13.772;2023-02-03T14:07:36;98825.94;;;5.69;100.00
39197;BME280;42889;51.112;13.772;2023-02-03T14:25:39;98844.16;;;5.64;100.00
39197;BME280;42889;51.112;13.772;2023-02-03T14:28:13;98869.31;;;5.61;100.00
39197;BME280;42889;51.112;13.772;2023-02-03T14:31:06;98864.09;;;5.50;100.00
39197;BME280;42889;51.112;13.772;2023-02-03T14:38:54;98855.25;;;5.59;100.00
39197;BME280;42889;51.112;13.772;2023-02-03T14:47:47;98868.03;;;5.55;100.00
39197;BME280;42889;51.112;13.772;2023-02-03T14:58:00;98895.50;;;5.46;100.00
39197;BME280;42889;51.112;13.772;2023-02-03T15:00:32;98892.00;;;5.46;100.00
39197;BME280;42889;51.112;13.772;2023-02-03T15:05:39;98891.56;;;5.41;100.00
39197;BME280;42889;51.112;13.772;2023-02-03T15:08:32;98900.41;;;5.41;100.00
39197;BME280;42889;51.112;13.772;2023-02-03T15:11:30;98917.25;;;5.42;100.00
39197;BME280;42889;51.112;13.772;2023-02-03T15:14:20;98936.84;;;5.31;100.00
39197;BME280;42889;51.112;13.772;2023-02-03T15:16:49;98921.09;;;4.86;100.00
39197;BME280;42889;51.112;13.772;2023-02-03T15:19:22;98921.34;;;4.51;100.00
39197;BME280;42889;51.112;13.772;2023-02-03T15:21:49;98915.34;;;4.27;100.00
39197;BME280;42889;51.112;13.772;2023-02-03T15:24:17;98934.28;;;4.12;100.00
39197;BME280;42889;51.112;13.772;2023-02-03T15:26:52;98939.13;;;4.07;100.00
39197;BME280;42889;51.112;13.772;2023-02-03T15:29:26;98946.72;;;4.12;100.00
39197;BME280;42889;51.112;13.772;2023-02-03T15:32:00;98944.94;;;4.12;100.00
39197;BME280;42889;51.112;13.772;2023-02-03T15:34:32;98946.13;;;4.19;100.00
39197;BME280;42889;51.112;13.772;2023-02-03T15:37:06;98936.41;;;4.30;100.00
39197;BME280;42889;51.112;13.772;2023-02-03T15:39:42;98948.59;;;4.43;100.00
39197;BME280;42889;51.112;13.772;2023-02-03T15:42:26;98946.75;;;4.55;100.00
39197;BME280;42889;51.112;13.772;2023-02-03T15:45:36;98947.13;;;4.62;100.00